Time;durP1;ratioP1;P1;durP2;ratioP2;P2;SDS_P1;SDS_P2;PMS_P1;PMS_P2;Temp;Humidity;BMP_temperature;BMP_pressure;BME280_temperature;BME280_humidity;BME280_pressure;Samples;Min_cycle;Max_cycle;Signal;HPM_P1;HPM_P2
2022/05/16 00:00:12;;;;;;;14.13;12.93;;;16.90;99.80;;;;;;5027688;28;20522;-67
2022/05/16 00:02:39;;;;;;;16.33;14.37;;;16.90;99.90;;;;;;5027936;28;20516;-67
2022/05/16 00:05:07;;;;;;;14.47;13.27;;;16.90;99.90;;;;;;5029972;28;21328;-66
2022/05/16 00:07:36;;;;;;;13.83;12.90;;;16.90;99.90;;;;;;5029902;28;20522;-66
2022/05/16 00:10:04;;;;;;;16.50;14.27;;;16.90;99.90;;;;;;5031532;28;20460;-67
2022/05/16 00:12:31;;;;;;;15.07;13.60;;;16.90;99.90;;;;;;5028478;28;20751;-67
2022/05/16 00:14:57;;;;;;;15.20;14.00;;;17.00;99.90;;;;;;5030916;28;20460;-67
2022/05/16 00:17:26;;;;;;;15.20;13.70;;;17.00;99.90;;;;;;5029074;28;20857;-67
2022/05/16 00:19:54;;;;;;;17.23;12.47;;;17.00;99.90;;;;;;5029249;28;20551;-67
2022/05/16 00:22:21;;;;;;;14.93;13.73;;;16.90;99.90;;;;;;5035967;28;20463;-66
2022/05/16 00:24:48;;;;;;;14.63;13.50;;;16.90;99.90;;;;;;5033128;28;20491;-67
2022/05/16 00:27:14;;;;;;;14.27;13.33;;;16.90;99.90;;;;;;5030508;28;20963;-67
2022/05/16 00:29:41;;;;;;;14.53;12.77;;;16.90;99.90;;;;;;5026449;28;20761;-67
2022/05/16 00:32:10;;;;;;;14.93;13.60;;;16.90;99.90;;;;;;5032092;28;20471;-67
2022/05/16 00:34:38;;;;;;;13.60;12.77;;;16.90;99.90;;;;;;5032661;28;20468;-66
2022/05/16 00:37:05;;;;;;;14.67;13.47;;;17.00;99.90;;;;;;5030207;28;20547;-67
2022/05/16 00:39:34;;;;;;;14.00;13.10;;;17.00;99.90;;;;;;5030279;28;20846;-66
2022/05/16 00:42:02;;;;;;;14.87;13.47;;;17.00;99.90;;;;;;5028161;28;20795;-67
2022/05/16 00:44:29;;;;;;;14.43;13.37;;;17.00;99.90;;;;;;5028283;28;20467;-66
2022/05/16 00:46:56;;;;;;;13.80;12.73;;;17.00;99.90;;;;;;5028625;28;20465;-67
2022/05/16 00:49:27;;;;;;;14.37;13.37;;;17.10;99.90;;;;;;5034026;28;20500;-66
2022/05/16 00:52:01;;;;;;;13.83;12.73;;;17.10;99.90;;;;;;5027660;28;20503;-67
2022/05/16 00:54:31;;;;;;;13.30;12.50;;;17.10;99.90;;;;;;5035360;28;21055;-66
2022/05/16 00:57:03;;;;;;;14.83;13.50;;;17.10;99.90;;;;;;5026532;28;20471;-67
2022/05/16 00:59:35;;;;;;;13.30;12.60;;;17.00;99.90;;;;;;5026411;28;20469;-67
2022/05/16 01:04:50;;;;;;;13.63;12.60;;;17.10;99.90;;;;;;5030372;28;20509;-67
2022/05/16 01:07:25;;;;;;;14.33;13.50;;;17.10;99.90;;;;;;5025720;28;20456;-67
2022/05/16 01:09:52;;;;;;;14.70;13.80;;;17.00;99.90;;;;;;5029658;28;20463;-67
2022/05/16 01:12:19;;;;;;;14.93;13.67;;;17.00;99.90;;;;;;5025405;28;20944;-67
2022/05/16 01:14:50;;;;;;;17.90;14.23;;;17.00;99.90;;;;;;5036070;28;20468;-67
2022/05/16 01:17:18;;;;;;;14.43;13.23;;;17.00;99.90;;;;;;5028374;28;20526;-67
2022/05/16 01:19:45;;;;;;;14.30;13.20;;;16.90;99.90;;;;;;5027237;28;20465;-66
2022/05/16 01:22:26;;;;;;;13.73;12.80;;;16.90;99.90;;;;;;5027986;28;20467;-67
2022/05/16 01:24:54;;;;;;;15.70;13.23;;;16.90;99.90;;;;;;5030108;28;21048;-66
2022/05/16 01:27:21;;;;;;;14.03;13.03;;;16.90;99.90;;;;;;5026617;28;20511;-66
2022/05/16 01:29:49;;;;;;;14.20;13.30;;;16.90;99.90;;;;;;5032196;28;20455;-67
2022/05/16 01:32:18;;;;;;;13.63;12.67;;;16.90;99.90;;;;;;5027868;28;21122;-66
2022/05/16 01:34:45;;;;;;;13.97;13.03;;;16.90;99.90;;;;;;5026495;28;20984;-67
2022/05/16 01:37:14;;;;;;;14.27;12.90;;;16.90;99.90;;;;;;5028061;28;20477;-66
2022/05/16 01:39:42;;;;;;;14.40;13.00;;;16.90;99.90;;;;;;5034112;28;20519;-67
2022/05/16 01:42:14;;;;;;;14.63;13.60;;;16.90;99.90;;;;;;5027564;28;20496;-67
2022/05/16 01:44:41;;;;;;;14.47;13.00;;;16.80;99.90;;;;;;5026999;28;20457;-68
2022/05/16 01:47:08;;;;;;;14.17;13.07;;;16.80;99.90;;;;;;5027961;28;20488;-67
2022/05/16 01:49:36;;;;;;;14.07;13.10;;;16.80;99.90;;;;;;5026248;28;20471;-66
2022/05/16 01:52:03;;;;;;;15.47;14.20;;;16.80;99.90;;;;;;5029345;28;20468;-67
2022/05/16 01:54:31;;;;;;;14.20;13.20;;;16.80;99.90;;;;;;5030655;28;20976;-67
2022/05/16 01:56:59;;;;;;;14.43;13.23;;;16.70;99.90;;;;;;5029880;28;20464;-68
2022/05/16 01:59:26;;;;;;;14.80;13.53;;;16.70;99.90;;;;;;5037919;28;20480;-67
2022/05/16 02:01:53;;;;;;;14.27;13.47;;;16.70;99.90;;;;;;5032093;28;20853;-67
2022/05/16 02:04:20;;;;;;;15.83;14.40;;;16.70;99.90;;;;;;5036251;28;20471;-67
2022/05/16 02:06:47;;;;;;;14.20;13.20;;;16.60;99.90;;;;;;5034485;28;21048;-67
2022/05/16 02:09:14;;;;;;;15.10;13.93;;;16.60;99.90;;;;;;5034058;28;20479;-68
2022/05/16 02:11:42;;;;;;;18.20;14.53;;;16.60;99.90;;;;;;5032353;28;20827;-67
2022/05/16 02:14:10;;;;;;;15.07;13.57;;;16.50;99.90;;;;;;5038024;28;20559;-68
2022/05/16 02:16:37;;;;;;;16.93;14.27;;;16.50;99.90;;;;;;5030347;28;20464;-67
2022/05/16 02:19:04;;;;;;;15.00;13.80;;;16.50;99.90;;;;;;5032263;28;20515;-67
2022/05/16 02:27:01;;;;;;;14.17;13.00;;;16.50;99.90;;;;;;5035244;28;20459;-67
2022/05/16 02:29:29;;;;;;;14.10;13.00;;;16.50;99.90;;;;;;5032962;28;20554;-67
2022/05/16 02:31:56;;;;;;;14.87;13.80;;;16.40;99.90;;;;;;5032702;28;20456;-67
2022/05/16 02:34:23;;;;;;;14.37;13.63;;;16.40;99.90;;;;;;5026480;28;20469;-67
2022/05/16 02:36:52;;;;;;;15.30;13.90;;;16.40;99.90;;;;;;5032252;28;20894;-67
2022/05/16 02:39:20;;;;;;;15.13;13.80;;;16.50;99.90;;;;;;5029988;28;20485;-67
2022/05/16 02:41:47;;;;;;;14.27;13.20;;;16.40;99.90;;;;;;5030671;28;20627;-67
2022/05/16 02:44:15;;;;;;;15.67;14.00;;;16.40;99.90;;;;;;5034683;28;20464;-67
2022/05/16 02:46:44;;;;;;;16.67;14.80;;;16.40;99.90;;;;;;5029212;28;20468;-67
2022/05/16 02:49:11;;;;;;;14.57;13.33;;;16.40;99.90;;;;;;5027606;28;20889;-67
2022/05/16 02:51:38;;;;;;;14.30;13.07;;;16.40;99.90;;;;;;5029766;28;20523;-67
2022/05/16 02:54:05;;;;;;;16.47;15.17;;;16.30;99.90;;;;;;5030921;28;20463;-67
2022/05/16 02:56:33;;;;;;;14.97;13.80;;;16.20;99.90;;;;;;5029404;28;20470;-67
2022/05/16 02:59:00;;;;;;;14.67;13.27;;;16.20;99.90;;;;;;5029155;28;20558;-67
2022/05/16 03:01:29;;;;;;;15.73;14.03;;;16.20;99.90;;;;;;5028830;28;20979;-67
2022/05/16 03:03:58;;;;;;;15.23;13.83;;;16.10;99.90;;;;;;5030076;28;20563;-67
2022/05/16 03:06:25;;;;;;;16.10;14.43;;;16.10;99.90;;;;;;5028124;28;20511;-67
2022/05/16 03:08:53;;;;;;;18.50;16.60;;;16.10;99.90;;;;;;5034580;28;20459;-67
2022/05/16 03:11:22;;;;;;;15.53;14.40;;;16.20;99.90;;;;;;5037705;28;20467;-67
2022/05/16 03:13:49;;;;;;;15.10;13.63;;;16.20;99.90;;;;;;5030858;28;20508;-67
2022/05/16 03:16:16;;;;;;;15.30;13.90;;;16.20;99.90;;;;;;5032707;28;20581;-67
2022/05/16 03:18:43;;;;;;;16.10;14.07;;;16.20;99.90;;;;;;5025016;28;22727;-67
2022/05/16 03:21:12;;;;;;;14.27;13.33;;;16.20;99.90;;;;;;5034330;28;20879;-67
2022/05/16 03:23:39;;;;;;;15.13;13.77;;;16.20;99.90;;;;;;5027100;28;20480;-67
2022/05/16 03:26:06;;;;;;;20.53;14.30;;;16.10;99.90;;;;;;5030824;28;20542;-67
2022/05/16 03:28:32;;;;;;;15.50;14.10;;;16.10;99.90;;;;;;5033402;28;20464;-67
2022/05/16 03:31:01;;;;;;;14.63;13.73;;;16.10;99.90;;;;;;5026519;28;20802;-67
2022/05/16 03:33:28;;;;;;;19.50;13.50;;;16.10;99.90;;;;;;5031461;28;21001;-67
2022/05/16 03:35:56;;;;;;;16.17;14.70;;;16.10;99.90;;;;;;5027871;28;20476;-67
2022/05/16 03:41:12;;;;;;;24.90;17.03;;;16.00;99.90;;;;;;5031284;28;20468;-67
2022/05/16 03:43:40;;;;;;;24.90;14.50;;;16.00;99.90;;;;;;5030573;28;20465;-67
2022/05/16 03:46:09;;;;;;;23.80;14.53;;;15.90;99.90;;;;;;5031057;28;20460;-67
2022/05/16 03:48:36;;;;;;;24.13;15.37;;;16.00;99.90;;;;;;5027790;28;21881;-67
2022/05/16 03:51:05;;;;;;;15.47;14.30;;;16.10;99.90;;;;;;5033210;28;20465;-67
2022/05/16 03:53:35;;;;;;;15.43;13.90;;;16.10;99.90;;;;;;5029336;28;20465;-67
2022/05/16 03:56:02;;;;;;;15.70;13.70;;;16.10;99.90;;;;;;5037563;28;20464;-67
2022/05/16 03:58:29;;;;;;;15.90;14.60;;;16.10;99.90;;;;;;5026383;28;20495;-67
2022/05/16 04:00:56;;;;;;;16.27;14.67;;;16.10;99.90;;;;;;5024029;28;20757;-67
2022/05/16 04:03:23;;;;;;;19.17;15.00;;;16.20;99.90;;;;;;5006478;28;21785;-67
2022/05/16 04:05:51;;;;;;;21.23;15.63;;;16.20;99.90;;;;;;5003930;28;20631;-67
2022/05/16 04:08:18;;;;;;;16.63;15.53;;;16.30;99.90;;;;;;5004408;28;20856;-67
2022/05/16 04:10:46;;;;;;;16.57;15.10;;;16.30;99.90;;;;;;5003334;28;20476;-67
2022/05/16 04:13:13;;;;;;;17.03;15.27;;;16.30;99.90;;;;;;5003672;28;20855;-67
2022/05/16 04:15:40;;;;;;;17.30;15.67;;;16.30;99.90;;;;;;5003292;28;20468;-68
2022/05/16 04:18:07;;;;;;;18.47;16.63;;;16.30;99.90;;;;;;5003455;28;20465;-67
2022/05/16 04:20:33;;;;;;;17.03;15.50;;;16.50;99.90;;;;;;5003610;28;20845;-67
2022/05/16 04:23:00;;;;;;;16.83;15.43;;;16.50;99.90;;;;;;5003904;28;21548;-68
2022/05/16 04:25:27;;;;;;;18.50;16.50;;;16.40;99.90;;;;;;5002996;28;20463;-67
2022/05/16 04:27:56;;;;;;;17.40;15.83;;;16.40;99.90;;;;;;5002552;28;20545;-68
2022/05/16 04:30:23;;;;;;;19.17;15.77;;;16.40;99.90;;;;;;5002769;28;20468;-68
2022/05/16 04:32:50;;;;;;;17.40;15.83;;;16.50;99.90;;;;;;5005088;28;20460;-67
2022/05/16 04:35:17;;;;;;;18.40;16.67;;;16.50;99.90;;;;;;5029217;28;20495;-68
2022/05/16 04:37:44;;;;;;;17.33;16.03;;;16.50;99.90;;;;;;5008574;28;21476;-68
2022/05/16 04:40:14;;;;;;;18.50;16.27;;;16.60;99.90;;;;;;5003436;28;20846;-68
2022/05/16 04:42:40;;;;;;;16.57;15.03;;;16.60;99.90;;;;;;5018097;28;20470;-67
2022/05/16 04:45:16;;;;;;;18.80;15.50;;;16.80;99.90;;;;;;5027797;28;20501;-68
2022/05/16 04:47:43;;;;;;;17.63;16.13;;;16.90;99.90;;;;;;5028045;28;20463;-67
2022/05/16 04:50:12;;;;;;;18.00;16.50;;;17.10;99.90;;;;;;5028052;28;20456;-68
2022/05/16 04:52:39;;;;;;;19.73;15.70;;;17.30;99.90;;;;;;5027961;28;21001;-68
2022/05/16 04:55:06;;;;;;;17.67;15.97;;;17.40;99.90;;;;;;5031224;28;20467;-68
2022/05/16 04:57:34;;;;;;;26.47;16.27;;;17.60;99.90;;;;;;5026922;28;20975;-67
2022/05/16 05:00:02;;;;;;;36.70;18.00;;;17.90;99.90;;;;;;5026801;28;20841;-67
2022/05/16 05:02:30;;;;;;;17.93;16.47;;;18.10;99.90;;;;;;5004535;28;20488;-68
2022/05/16 05:04:59;;;;;;;28.53;17.90;;;18.10;99.90;;;;;;5003615;28;22442;-68
2022/05/16 05:07:26;;;;;;;19.07;17.07;;;18.10;99.90;;;;;;5004265;28;20461;-68
2022/05/16 05:15:21;;;;;;;28.30;17.53;;;18.10;99.90;;;;;;5004647;28;21049;-68
2022/05/16 05:17:49;;;;;;;38.47;17.07;;;18.20;99.90;;;;;;5003379;28;20555;-69
2022/05/16 05:20:17;;;;;;;22.23;16.13;;;18.20;99.90;;;;;;5004558;28;20491;-69
2022/05/16 05:22:46;;;;;;;29.30;17.30;;;18.30;99.90;;;;;;5003972;28;20510;-69
2022/05/16 05:25:15;;;;;;;19.10;17.00;;;18.30;99.90;;;;;;5004368;28;20476;-69
2022/05/16 05:27:43;;;;;;;19.63;16.40;;;18.40;99.90;;;;;;5003954;28;21104;-68
2022/05/16 05:30:13;;;;;;;24.03;17.00;;;18.50;99.90;;;;;;5005507;28;20491;-68
2022/05/16 05:32:40;;;;;;;21.03;16.23;;;18.60;99.90;;;;;;5006944;28;20467;-68
2022/05/16 05:35:09;;;;;;;29.20;17.57;;;18.50;99.90;;;;;;5007064;28;20510;-69
2022/05/16 05:37:36;;;;;;;24.20;17.27;;;18.60;99.90;;;;;;5007328;28;20457;-68
2022/05/16 05:40:04;;;;;;;27.83;17.00;;;18.60;99.90;;;;;;5008365;28;20839;-68
2022/05/16 05:42:32;;;;;;;26.87;17.37;;;18.60;99.90;;;;;;5007411;28;20465;-69
2022/05/16 05:45:00;;;;;;;18.13;16.60;;;18.70;99.90;;;;;;5007718;28;20460;-68
2022/05/16 05:47:28;;;;;;;18.90;16.80;;;18.80;99.90;;;;;;5007608;28;20909;-69
2022/05/16 05:49:55;;;;;;;16.97;15.73;;;19.00;99.90;;;;;;5007293;28;20448;-69
2022/05/16 05:52:23;;;;;;;18.20;16.37;;;19.00;99.90;;;;;;5007681;28;21049;-69
2022/05/16 05:54:50;;;;;;;18.17;16.77;;;18.90;99.90;;;;;;5007936;28;20462;-69
2022/05/16 05:57:17;;;;;;;19.77;17.93;;;18.90;99.90;;;;;;5008502;28;21095;-68
2022/05/16 05:59:44;;;;;;;19.53;17.50;;;18.80;99.90;;;;;;5007483;28;20499;-69
2022/05/16 06:02:11;;;;;;;19.40;17.67;;;18.90;99.90;;;;;;5004611;28;20781;-69
2022/05/16 06:04:38;;;;;;;20.77;16.27;;;19.00;99.90;;;;;;5005773;28;20473;-68
2022/05/16 06:07:05;;;;;;;25.90;17.47;;;19.00;99.90;;;;;;5005044;28;20980;-69
2022/05/16 06:09:34;;;;;;;18.43;16.40;;;19.00;99.90;;;;;;5003422;28;20487;-69
2022/05/16 06:12:03;;;;;;;19.93;17.93;;;19.10;99.90;;;;;;5005009;28;20461;-69
2022/05/16 06:14:30;;;;;;;18.53;16.97;;;19.10;99.90;;;;;;5005017;28;20464;-68
2022/05/16 06:16:57;;;;;;;18.50;16.80;;;19.00;99.90;;;;;;5005565;28;20898;-68
2022/05/16 06:19:24;;;;;;;19.50;17.60;;;19.00;99.90;;;;;;5004687;28;20496;-67
2022/05/16 06:21:51;;;;;;;20.07;18.27;;;19.00;99.90;;;;;;5005120;28;20603;-68
2022/05/16 06:27:06;;;;;;;23.43;17.40;;;19.00;99.90;;;;;;5004543;28;20994;-68
2022/05/16 06:29:33;;;;;;;17.87;16.10;;;19.00;99.90;;;;;;5002998;28;21039;-70
2022/05/16 06:31:59;;;;;;;26.13;17.20;;;19.00;99.90;;;;;;5007214;28;20463;-66
2022/05/16 06:34:26;;;;;;;19.40;16.00;;;19.00;99.90;;;;;;5015691;28;20840;-67
2022/05/16 06:36:53;;;;;;;19.87;16.13;;;19.10;99.90;;;;;;5007262;28;20456;-67
2022/05/16 06:39:20;;;;;;;25.33;16.50;;;19.30;99.90;;;;;;5007551;28;20494;-67
2022/05/16 06:41:47;;;;;;;29.00;17.87;;;19.30;99.90;;;;;;5006368;28;20480;-67
2022/05/16 06:44:16;;;;;;;19.53;16.70;;;19.40;99.90;;;;;;5008139;28;20899;-67
2022/05/16 06:46:44;;;;;;;29.93;17.60;;;19.40;99.90;;;;;;5004121;28;20468;-67
2022/05/16 06:49:11;;;;;;;25.23;17.60;;;19.40;99.90;;;;;;5005147;28;20452;-66
2022/05/16 06:51:38;;;;;;;18.23;16.57;;;19.60;99.90;;;;;;5007313;28;20461;-67
2022/05/16 06:54:06;;;;;;;18.90;16.83;;;19.90;99.90;;;;;;5007937;28;21033;-68
2022/05/16 06:56:32;;;;;;;25.53;16.80;;;20.00;99.90;;;;;;5010730;28;20501;-67
2022/05/16 06:58:59;;;;;;;17.80;15.77;;;20.00;99.90;;;;;;5022392;28;20457;-68
2022/05/16 07:01:28;;;;;;;18.83;16.10;;;20.10;99.90;;;;;;5002039;28;20465;-67
2022/05/16 07:03:55;;;;;;;18.93;16.30;;;20.20;99.90;;;;;;5006663;28;20492;-68
2022/05/16 07:06:22;;;;;;;18.70;16.43;;;20.10;99.90;;;;;;5000757;28;20518;-68
2022/05/16 07:08:48;;;;;;;25.33;16.90;;;20.20;99.90;;;;;;5005593;28;20460;-68
2022/05/16 07:11:16;;;;;;;24.43;17.90;;;20.50;99.90;;;;;;5005777;28;20832;-67
2022/05/16 07:13:43;;;;;;;22.37;17.83;;;20.60;99.90;;;;;;5005660;28;20464;-67
2022/05/16 07:16:10;;;;;;;18.20;16.63;;;20.70;99.90;;;;;;5005900;28;20464;-67
2022/05/16 07:18:39;;;;;;;17.47;15.80;;;20.80;99.90;;;;;;5004658;28;20456;-68
2022/05/16 07:21:06;;;;;;;18.00;16.23;;;20.80;99.90;;;;;;5010100;28;20492;-67
2022/05/16 07:23:34;;;;;;;17.73;16.23;;;20.90;99.90;;;;;;5008708;28;21098;-67
2022/05/16 07:28:45;;;;;;;28.73;17.50;;;21.10;99.90;;;;;;5003241;28;20472;-67
2022/05/16 07:31:12;;;;;;;18.10;16.00;;;20.90;99.90;;;;;;5003171;28;20833;-67
2022/05/16 07:33:40;;;;;;;19.63;16.50;;;20.80;99.90;;;;;;5003107;28;20487;-68
2022/05/16 07:36:08;;;;;;;23.43;16.60;;;20.70;99.90;;;;;;5003873;28;20464;-68
2022/05/16 07:38:35;;;;;;;18.30;16.60;;;20.90;99.90;;;;;;5003704;28;20479;-68
2022/05/16 07:41:02;;;;;;;21.60;16.67;;;21.30;99.90;;;;;;5002240;28;21144;-68
2022/05/16 07:43:29;;;;;;;17.93;16.10;;;21.20;99.90;;;;;;5002807;28;21331;-67
2022/05/16 07:45:57;;;;;;;18.00;15.97;;;21.20;99.90;;;;;;5002586;28;20915;-67
2022/05/16 07:48:24;;;;;;;21.90;16.60;;;21.20;99.90;;;;;;5002128;28;20928;-68
2022/05/16 07:50:52;;;;;;;16.50;15.23;;;21.30;99.90;;;;;;5002095;28;20564;-68
2022/05/16 07:53:19;;;;;;;19.47;15.80;;;21.40;99.90;;;;;;5002454;28;20463;-68
2022/05/16 07:55:51;;;;;;;20.83;16.40;;;21.60;99.90;;;;;;5001087;28;21007;-67
2022/05/16 07:58:20;;;;;;;18.43;16.50;;;21.90;99.90;;;;;;5002671;28;20497;-67
2022/05/16 08:00:48;;;;;;;21.70;16.57;;;22.00;99.90;;;;;;5002734;28;20921;-67
2022/05/16 08:03:16;;;;;;;18.63;16.97;;;22.20;99.90;;;;;;5002104;28;20550;-69
2022/05/16 08:05:44;;;;;;;18.27;16.77;;;22.50;99.90;;;;;;5001628;28;20492;-68
2022/05/16 08:10:58;;;;;;;19.33;17.30;;;22.50;99.90;;;;;;5000563;28;20566;-67
2022/05/16 08:13:26;;;;;;;18.07;16.40;;;22.60;99.90;;;;;;5002467;28;20502;-69
2022/05/16 08:15:53;;;;;;;18.60;16.63;;;22.80;99.90;;;;;;5001973;28;20479;-68
2022/05/16 08:18:20;;;;;;;19.77;17.77;;;23.00;99.90;;;;;;5001839;28;20500;-69
2022/05/16 08:20:49;;;;;;;19.33;17.50;;;23.70;99.90;;;;;;5000902;28;20489;-68
2022/05/16 08:23:21;;;;;;;19.57;17.40;;;24.30;99.90;;;;;;5003037;28;21490;-68
2022/05/16 08:25:48;;;;;;;23.47;16.23;;;25.00;99.90;;;;;;5002532;28;20555;-68
2022/05/16 08:28:16;;;;;;;19.67;16.70;;;26.00;99.40;;;;;;5003731;28;20596;-68
2022/05/16 08:30:43;;;;;;;19.50;16.67;;;26.50;97.50;;;;;;5002231;28;20479;-68
2022/05/16 08:33:09;;;;;;;24.57;16.33;;;27.10;95.50;;;;;;5002876;28;20461;-68
2022/05/16 08:35:36;;;;;;;18.90;17.13;;;27.90;94.90;;;;;;5002596;28;20772;-68
2022/05/16 08:40:55;;;;;;;22.93;17.63;;;28.10;93.10;;;;;;5002017;28;20516;-69
2022/05/16 08:43:43;;;;;;;21.07;17.40;;;28.50;91.80;;;;;;5003215;28;20460;-67
2022/05/16 08:46:22;;;;;;;23.03;16.97;;;28.80;90.10;;;;;;5003947;28;21174;-69
2022/05/16 08:48:54;;;;;;;26.10;16.73;;;28.70;89.50;;;;;;5002473;28;20472;-67
2022/05/16 08:51:23;;;;;;;19.67;17.90;;;29.00;88.10;;;;;;5016677;28;20468;-67
2022/05/16 08:53:58;;;;;;;32.60;17.90;;;28.30;88.70;;;;;;5021435;28;20853;-67
2022/05/16 08:56:33;;;;;;;19.73;17.40;;;28.40;90.00;;;;;;5001082;28;20474;-67
2022/05/16 08:59:02;;;;;;;18.90;16.93;;;29.20;87.20;;;;;;5002599;28;20542;-68
2022/05/16 09:01:34;;;;;;;30.53;17.40;;;29.50;86.70;;;;;;5019453;28;20493;-68
2022/05/16 09:04:03;;;;;;;19.47;17.50;;;29.90;85.90;;;;;;5028730;28;20490;-69
2022/05/16 09:06:35;;;;;;;22.00;16.07;;;30.60;82.70;;;;;;5024958;28;20492;-69
2022/05/16 09:09:07;;;;;;;18.63;16.83;;;31.10;79.10;;;;;;5016043;28;20479;-69
2022/05/16 09:11:56;;;;;;;20.33;17.17;;;31.40;78.00;;;;;;5001008;28;20918;-68
2022/05/16 09:14:35;;;;;;;20.23;17.73;;;31.60;76.80;;;;;;4999937;28;20872;-69
2022/05/16 09:17:07;;;;;;;35.93;18.90;;;31.80;76.80;;;;;;5002013;28;20474;-68
2022/05/16 09:19:51;;;;;;;23.37;17.67;;;31.70;73.60;;;;;;5000738;28;20558;-69
2022/05/16 09:22:25;;;;;;;21.77;18.50;;;31.10;73.80;;;;;;5000188;28;20473;-68
2022/05/16 09:24:56;;;;;;;21.87;17.83;;;31.40;73.40;;;;;;5001534;28;20487;-69
2022/05/16 09:30:14;;;;;;;22.13;17.47;;;33.10;69.10;;;;;;5001687;28;20503;-68
2022/05/16 09:32:44;;;;;;;19.17;17.27;;;32.90;67.90;;;;;;5002093;28;21306;-68
2022/05/16 09:35:20;;;;;;;26.40;17.33;;;33.40;67.90;;;;;;5001736;28;20457;-69
2022/05/16 09:37:47;;;;;;;21.67;16.97;;;33.10;67.20;;;;;;4998393;28;20468;-68
2022/05/16 09:40:15;;;;;;;27.07;17.00;;;33.60;66.30;;;;;;4999509;28;20503;-69
2022/05/16 09:42:43;;;;;;;27.47;16.63;;;34.70;62.40;;;;;;4999345;28;21086;-68
2022/05/16 09:45:18;;;;;;;20.37;16.23;;;34.70;61.60;;;;;;4999654;28;20452;-69
2022/05/16 09:47:46;;;;;;;17.90;16.10;;;34.60;59.80;;;;;;4999052;28;20478;-68
2022/05/16 09:50:20;;;;;;;17.33;16.13;;;34.70;57.50;;;;;;5000482;28;20488;-68
2022/05/16 09:52:49;;;;;;;23.10;17.53;;;34.30;57.80;;;;;;5000175;28;20467;-69
2022/05/16 09:55:26;;;;;;;20.20;16.13;;;34.70;56.90;;;;;;5011193;28;20986;-68
2022/05/16 09:57:58;;;;;;;16.80;15.37;;;35.00;56.30;;;;;;5026874;28;20830;-69
2022/05/16 10:00:38;;;;;;;17.57;16.00;;;35.20;55.90;;;;;;5026588;28;20465;-69
2022/05/16 10:03:22;;;;;;;17.30;15.70;;;35.50;55.00;;;;;;5018381;28;21186;-69
2022/05/16 10:05:51;;;;;;;16.27;14.97;;;35.00;54.60;;;;;;4999058;28;21095;-68
2022/05/16 10:08:27;;;;;;;16.77;15.47;;;35.50;55.10;;;;;;4999730;28;20468;-69
2022/05/16 10:10:56;;;;;;;17.40;15.67;;;35.30;56.00;;;;;;4998852;28;20500;-69
2022/05/16 10:13:25;;;;;;;18.23;15.73;;;35.40;54.50;;;;;;5000147;28;20459;-68
2022/05/16 10:15:55;;;;;;;16.00;14.80;;;35.70;54.50;;;;;;4999297;28;20895;-69
2022/05/16 10:18:24;;;;;;;16.83;15.63;;;35.50;52.80;;;;;;5002948;28;20493;-69
2022/05/16 10:20:56;;;;;;;15.53;14.53;;;34.10;55.70;;;;;;5003971;28;20517;-69
2022/05/16 10:23:27;;;;;;;16.23;15.33;;;33.00;55.30;;;;;;5003503;28;20488;-69
2022/05/16 10:25:57;;;;;;;16.87;15.77;;;33.00;56.70;;;;;;5003522;28;20503;-69
2022/05/16 10:28:31;;;;;;;16.73;15.60;;;33.30;55.10;;;;;;5003799;28;20495;-69
2022/05/16 10:33:48;;;;;;;15.37;14.07;;;33.20;56.90;;;;;;5004253;28;21108;-69
2022/05/16 10:36:24;;;;;;;16.30;15.50;;;32.30;58.10;;;;;;5004234;28;21005;-69
2022/05/16 10:38:58;;;;;;;17.37;16.20;;;31.70;59.40;;;;;;5036575;28;20459;-69
2022/05/16 10:41:30;;;;;;;16.53;15.53;;;31.90;58.10;;;;;;5032202;28;20465;-69
2022/05/16 10:44:08;;;;;;;18.27;16.40;;;31.70;57.50;;;;;;5032285;28;20474;-69
2022/05/16 10:46:38;;;;;;;18.30;16.70;;;31.50;58.70;;;;;;5007711;28;20853;-68
2022/05/16 10:49:10;;;;;;;19.83;17.80;;;31.30;59.30;;;;;;5002524;28;20955;-68
2022/05/16 10:51:43;;;;;;;19.43;17.50;;;30.40;64.10;;;;;;5002043;28;20500;-68
2022/05/16 10:54:12;;;;;;;18.33;16.60;;;29.20;67.20;;;;;;5006768;28;21054;-68
2022/05/16 10:56:57;;;;;;;20.57;17.10;;;28.50;69.20;;;;;;5032690;28;20463;-69
2022/05/16 10:59:54;;;;;;;17.93;16.20;;;28.20;72.90;;;;;;5007746;28;21020;-68
2022/05/16 11:02:32;;;;;;;17.70;16.70;;;28.20;75.40;;;;;;5002315;28;20491;-68
2022/05/16 11:05:12;;;;;;;18.30;17.07;;;27.80;78.90;;;;;;5002494;28;20491;-68
2022/05/16 11:07:50;;;;;;;18.07;16.60;;;27.20;79.60;;;;;;5002898;28;21159;-69
2022/05/16 11:10:26;;;;;;;17.20;15.77;;;27.20;80.90;;;;;;5001972;28;20523;-68
2022/05/16 11:13:05;;;;;;;17.93;16.07;;;27.70;81.30;;;;;;5003433;28;20616;-68
2022/05/16 11:15:40;;;;;;;19.20;17.27;;;28.20;79.50;;;;;;5001651;28;21086;-69
2022/05/16 11:18:15;;;;;;;26.17;17.83;;;28.70;79.20;;;;;;5002915;28;20468;-68
2022/05/16 11:20:45;;;;;;;17.70;16.50;;;28.80;76.60;;;;;;5002546;28;20471;-68
2022/05/16 11:23:24;;;;;;;18.00;16.80;;;28.60;79.90;;;;;;5002342;28;20464;-68
2022/05/16 11:25:55;;;;;;;17.60;16.10;;;29.00;78.40;;;;;;5001802;28;20475;-69
2022/05/16 11:28:32;;;;;;;17.60;16.10;;;29.10;78.30;;;;;;5001960;28;20753;-69
2022/05/16 11:31:04;;;;;;;17.47;15.93;;;29.30;78.40;;;;;;5001816;28;20832;-69
2022/05/16 11:33:40;;;;;;;18.40;16.87;;;29.70;77.20;;;;;;5002950;28;20472;-68
2022/05/16 11:36:19;;;;;;;17.63;16.10;;;29.70;78.80;;;;;;5001013;28;20480;-68
2022/05/16 11:39:08;;;;;;;16.93;15.60;;;29.70;79.00;;;;;;5025778;28;20909;-68
2022/05/16 11:41:48;;;;;;;18.10;16.80;;;30.10;78.70;;;;;;5026250;28;20457;-68
2022/05/16 11:44:24;;;;;;;16.80;15.80;;;30.40;78.30;;;;;;5027870;28;20491;-69
2022/05/16 11:46:58;;;;;;;18.43;16.90;;;30.10;80.20;;;;;;5002378;28;20525;-68
2022/05/16 11:49:33;;;;;;;19.17;17.50;;;29.60;82.20;;;;;;5001737;28;20469;-68
2022/05/16 11:52:23;;;;;;;20.53;18.17;;;29.00;82.50;;;;;;5001775;28;20853;-68
2022/05/16 11:54:57;;;;;;;19.77;17.90;;;28.90;84.80;;;;;;5029728;28;20830;-68
2022/05/16 12:03:20;;;;;;;21.13;18.80;;;30.80;82.40;;;;;;5030588;28;20483;-68
2022/05/16 12:05:53;;;;;;;20.13;18.40;;;30.60;80.50;;;;;;5029269;28;20480;-69
2022/05/16 12:08:42;;;;;;;19.97;18.33;;;30.20;83.00;;;;;;5000992;28;20830;-68
2022/05/16 12:11:20;;;;;;;21.97;19.30;;;29.40;83.40;;;;;;5001214;28;20580;-68
2022/05/16 12:14:10;;;;;;;25.73;18.50;;;28.40;86.00;;;;;;5000423;28;20574;-68
2022/05/16 12:16:52;;;;;;;19.43;17.93;;;28.10;86.60;;;;;;5001375;28;21643;-68
2022/05/16 12:19:31;;;;;;;19.97;18.57;;;27.70;87.30;;;;;;5001426;28;21370;-68
2022/05/16 12:22:02;;;;;;;21.07;19.17;;;28.30;89.00;;;;;;5001482;28;20502;-68
2022/05/16 12:24:33;;;;;;;18.83;17.67;;;28.30;88.30;;;;;;5001012;28;21624;-69
2022/05/16 12:27:10;;;;;;;19.90;18.60;;;28.00;89.80;;;;;;5002102;28;20480;-69
2022/05/16 12:29:43;;;;;;;24.63;18.83;;;27.60;90.60;;;;;;5001281;28;20460;-69
2022/05/16 12:32:20;;;;;;;19.10;17.70;;;27.20;91.20;;;;;;5000336;28;21410;-69
2022/05/16 12:34:50;;;;;;;20.27;18.80;;;27.40;91.90;;;;;;4999799;28;20456;-70
2022/05/16 12:37:19;;;;;;;19.80;18.30;;;27.70;92.70;;;;;;5010918;28;20463;-69
2022/05/16 12:40:03;;;;;;;20.57;18.37;;;28.10;91.30;;;;;;5031895;28;20979;-69
2022/05/16 12:42:51;;;;;;;20.30;18.67;;;28.20;91.10;;;;;;5020556;28;20744;-70
2022/05/16 12:45:33;;;;;;;22.67;20.37;;;27.50;92.40;;;;;;4999746;28;21442;-69
2022/05/16 12:48:34;;;;;;;21.03;19.07;;;27.70;92.50;;;;;;5000227;28;21014;-69
2022/05/16 12:51:21;;;;;;;20.37;18.83;;;27.60;92.80;;;;;;5000811;28;20496;-70
2022/05/16 12:54:19;;;;;;;19.80;18.50;;;27.40;93.10;;;;;;5000124;28;20461;-69
2022/05/16 12:56:49;;;;;;;20.27;18.73;;;27.80;92.30;;;;;;5000868;28;20784;-70
2022/05/16 12:59:32;;;;;;;21.97;19.60;;;27.60;92.40;;;;;;5001411;28;20565;-69
2022/05/16 13:02:13;;;;;;;21.30;19.37;;;27.20;92.80;;;;;;5000371;28;20459;-69
2022/05/16 13:04:55;;;;;;;28.10;18.50;;;27.60;93.40;;;;;;4999871;28;20566;-69
2022/05/16 13:07:37;;;;;;;21.90;19.97;;;27.90;92.60;;;;;;5000215;28;20469;-69
2022/05/16 13:10:09;;;;;;;21.83;20.00;;;28.20;92.10;;;;;;4999720;28;20841;-69
2022/05/16 13:12:45;;;;;;;22.23;20.47;;;28.10;91.60;;;;;;5000597;28;20508;-69
2022/05/16 13:15:17;;;;;;;21.50;19.77;;;28.00;91.80;;;;;;5001584;28;22555;-70
2022/05/16 13:17:50;;;;;;;19.50;18.10;;;28.30;93.10;;;;;;5000173;28;20461;-69
2022/05/16 13:20:20;;;;;;;21.23;19.33;;;28.40;92.30;;;;;;5000099;28;20473;-69
2022/05/16 13:22:50;;;;;;;20.93;19.13;;;27.70;91.80;;;;;;5000090;28;20822;-68